sensor_id;sensor_type;location;lat;lon;timestamp;temperature;humidity
67165;SHT31;54093;50.014;19.984;2023-05-20T00:01:52;11.28;84.71
67165;SHT31;54093;50.014;19.984;2023-05-20T00:11:13;11.25;84.64
67165;SHT31;54093;50.014;19.984;2023-05-20T00:20:33;11.28;84.63
67165;SHT31;54093;50.014;19.984;2023-05-20T00:29:54;11.25;85.10
67165;SHT31;54093;50.014;19.984;2023-05-20T00:39:15;11.25;85.13
67165;SHT31;54093;50.014;19.984;2023-05-20T00:48:42;11.25;85.31
67165;SHT31;54093;50.014;19.984;2023-05-20T00:58:03;11.24;85.48
67165;SHT31;54093;50.014;19.984;2023-05-20T01:07:23;11.24;85.65
67165;SHT31;54093;50.014;19.984;2023-05-20T01:16:46;11.24;85.59
67165;SHT31;54093;50.014;19.984;2023-05-20T01:26:09;11.20;85.88
67165;SHT31;54093;50.014;19.984;2023-05-20T01:35:33;11.17;86.08
67165;SHT31;54093;50.014;19.984;2023-05-20T01:44:55;11.15;86.30
67165;SHT31;54093;50.014;19.984;2023-05-20T01:54:16;11.15;86.52
67165;SHT31;54093;50.014;19.984;2023-05-20T02:03:37;11.14;86.60
67165;SHT31;54093;50.014;19.984;2023-05-20T02:12:58;11.17;86.62
67165;SHT31;54093;50.014;19.984;2023-05-20T02:22:19;11.18;86.65
67165;SHT31;54093;50.014;19.984;2023-05-20T02:31:40;11.20;86.49
67165;SHT31;54093;50.014;19.984;2023-05-20T02:41:01;11.18;86.73
67165;SHT31;54093;50.014;19.984;2023-05-20T02:50:23;11.20;86.72
67165;SHT31;54093;50.014;19.984;2023-05-20T02:59:44;11.17;86.73
67165;SHT31;54093;50.014;19.984;2023-05-20T03:09:05;11.18;86.92
67165;SHT31;54093;50.014;19.984;2023-05-20T03:18:29;11.14;87.11
67165;SHT31;54093;50.014;19.984;2023-05-20T03:27:50;11.18;87.00
67165;SHT31;54093;50.014;19.984;2023-05-20T03:37:11;11.17;87.19
67165;SHT31;54093;50.014;19.984;2023-05-20T03:46:32;11.18;87.23
67165;SHT31;54093;50.014;19.984;2023-05-20T03:55:53;11.25;87.09
67165;SHT31;54093;50.014;19.984;2023-05-20T04:05:14;11.24;87.14
67165;SHT31;54093;50.014;19.984;2023-05-20T04:14:35;11.27;87.30
67165;SHT31;54093;50.014;19.984;2023-05-20T04:23:56;11.28;87.41
67165;SHT31;54093;50.014;19.984;2023-05-20T04:33:17;11.30;87.39
67165;SHT31;54093;50.014;19.984;2023-05-20T04:42:38;11.35;87.40
67165;SHT31;54093;50.014;19.984;2023-05-20T04:51:59;11.42;87.38
67165;SHT31;54093;50.014;19.984;2023-05-20T05:01:20;11.45;87.59
67165;SHT31;54093;50.014;19.984;2023-05-20T05:10:41;11.48;87.73
67165;SHT31;54093;50.014;19.984;2023-05-20T05:20:02;11.52;87.75
67165;SHT31;54093;50.014;19.984;2023-05-20T05:29:23;11.61;87.90
67165;SHT31;54093;50.014;19.984;2023-05-20T05:38:44;11.65;88.08
67165;SHT31;54093;50.014;19.984;2023-05-20T05:48:04;11.75;88.51
67165;SHT31;54093;50.014;19.984;2023-05-20T05:57:25;11.80;88.71
67165;SHT31;54093;50.014;19.984;2023-05-20T06:06:49;11.89;88.87
67165;SHT31;54093;50.014;19.984;2023-05-20T06:16:10;11.97;89.13
67165;SHT31;54093;50.014;19.984;2023-05-20T06:25:31;12.03;89.21
67165;SHT31;54093;50.014;19.984;2023-05-20T06:34:52;12.14;89.24
67165;SHT31;54093;50.014;19.984;2023-05-20T06:44:13;12.18;89.27
67165;SHT31;54093;50.014;19.984;2023-05-20T06:53:34;12.37;89.52
67165;SHT31;54093;50.014;19.984;2023-05-20T07:02:55;12.58;89.74
67165;SHT31;54093;50.014;19.984;2023-05-20T07:12:16;12.84;89.86
67165;SHT31;54093;50.014;19.984;2023-05-20T07:21:37;13.02;89.85
67165;SHT31;54093;50.014;19.984;2023-05-20T07:30:58;13.13;89.50
67165;SHT31;54093;50.014;19.984;2023-05-20T07:40:19;13.36;89.01
67165;SHT31;54093;50.014;19.984;2023-05-20T07:49:40;13.60;89.06
67165;SHT31;54093;50.014;19.984;2023-05-20T07:59:03;13.77;88.24
67165;SHT31;54093;50.014;19.984;2023-05-20T08:08:24;13.94;87.68
67165;SHT31;54093;50.014;19.984;2023-05-20T08:17:46;14.06;86.86
67165;SHT31;54093;50.014;19.984;2023-05-20T08:27:07;14.12;85.54
67165;SHT31;54093;50.014;19.984;2023-05-20T08:36:28;14.26;85.55
67165;SHT31;54093;50.014;19.984;2023-05-20T08:45:49;14.46;85.67
67165;SHT31;54093;50.014;19.984;2023-05-20T09:04:49;14.66;84.97
67165;SHT31;54093;50.014;19.984;2023-05-20T09:14:10;14.79;84.03
67165;SHT31;54093;50.014;19.984;2023-05-20T09:23:31;14.95;83.80
67165;SHT31;54093;50.014;19.984;2023-05-20T09:32:56;15.09;83.12
67165;SHT31;54093;50.014;19.984;2023-05-20T09:42:21;15.21;82.26
67165;SHT31;54093;50.014;19.984;2023-05-20T09:51:46;15.50;81.86
67165;SHT31;54093;50.014;19.984;2023-05-20T10:01:07;15.90;80.28
67165;SHT31;54093;50.014;19.984;2023-05-20T10:10:41;16.04;79.85
67165;SHT31;54093;50.014;19.984;2023-05-20T10:20:06;16.14;80.23
67165;SHT31;54093;50.014;19.984;2023-05-20T10:29:48;16.36;78.89
67165;SHT31;54093;50.014;19.984;2023-05-20T10:39:13;16.83;78.62
67165;SHT31;54093;50.014;19.984;2023-05-20T10:48:40;17.14;77.28
67165;SHT31;54093;50.014;19.984;2023-05-20T10:58:02;17.38;75.61
67165;SHT31;54093;50.014;19.984;2023-05-20T11:07:24;17.58;75.40
67165;SHT31;54093;50.014;19.984;2023-05-20T11:16:50;18.02;74.82
67165;SHT31;54093;50.014;19.984;2023-05-20T11:26:11;18.46;73.48
67165;SHT31;54093;50.014;19.984;2023-05-20T11:35:32;19.32;71.83
67165;SHT31;54093;50.014;19.984;2023-05-20T11:44:53;19.94;68.62
67165;SHT31;54093;50.014;19.984;2023-05-20T11:54:13;20.52;63.80
67165;SHT31;54093;50.014;19.984;2023-05-20T12:03:35;20.96;66.34
67165;SHT31;54093;50.014;19.984;2023-05-20T12:12:56;21.32;64.46
67165;SHT31;54093;50.014;19.984;2023-05-20T12:22:17;21.68;63.50
67165;SHT31;54093;50.014;19.984;2023-05-20T12:31:38;21.92;63.15
67165;SHT31;54093;50.014;19.984;2023-05-20T12:41:19;22.23;62.25
67165;SHT31;54093;50.014;19.984;2023-05-20T12:50:47;22.71;60.98
67165;SHT31;54093;50.014;19.984;2023-05-20T13:00:19;22.90;61.04
67165;SHT31;54093;50.014;19.984;2023-05-20T13:09:53;23.22;58.92
67165;SHT31;54093;50.014;19.984;2023-05-20T13:19:14;22.92;61.76
67165;SHT31;54093;50.014;19.984;2023-05-20T13:28:58;23.05;63.52
67165;SHT31;54093;50.014;19.984;2023-05-20T13:38:25;23.29;62.07
67165;SHT31;54093;50.014;19.984;2023-05-20T13:47:48;23.36;60.13
67165;SHT31;54093;50.014;19.984;2023-05-20T13:57:27;23.26;61.52
67165;SHT31;54093;50.014;19.984;2023-05-20T14:06:48;23.30;61.37
67165;SHT31;54093;50.014;19.984;2023-05-20T14:16:12;23.42;61.31
67165;SHT31;54093;50.014;19.984;2023-05-20T14:25:33;23.43;61.00
67165;SHT31;54093;50.014;19.984;2023-05-20T14:34:53;23.60;59.33
67165;SHT31;54093;50.014;19.984;2023-05-20T14:44:14;23.61;58.81
67165;SHT31;54093;50.014;19.984;2023-05-20T14:53:35;23.53;55.48
67165;SHT31;54093;50.014;19.984;2023-05-20T15:02:56;23.43;57.47
67165;SHT31;54093;50.014;19.984;2023-05-20T15:12:17;23.38;55.62
67165;SHT31;54093;50.014;19.984;2023-05-20T15:21:38;23.32;54.69
67165;SHT31;54093;50.014;19.984;2023-05-20T15:30:59;23.16;54.77
67165;SHT31;54093;50.014;19.984;2023-05-20T15:40:20;23.11;56.01
67165;SHT31;54093;50.014;19.984;2023-05-20T15:49:42;23.13;56.94
67165;SHT31;54093;50.014;19.984;2023-05-20T15:59:03;23.09;58.03
67165;SHT31;54093;50.014;19.984;2023-05-20T16:08:24;22.91;55.70
67165;SHT31;54093;50.014;19.984;2023-05-20T16:17:45;22.54;55.44
67165;SHT31;54093;50.014;19.984;2023-05-20T16:27:06;22.29;53.45
67165;SHT31;54093;50.014;19.984;2023-05-20T16:36:27;22.00;54.82
67165;SHT31;54093;50.014;19.984;2023-05-20T16:45:48;21.81;57.26
67165;SHT31;54093;50.014;19.984;2023-05-20T16:55:09;21.69;58.10
67165;SHT31;54093;50.014;19.984;2023-05-20T17:04:30;21.45;58.24
67165;SHT31;54093;50.014;19.984;2023-05-20T17:13:51;21.26;57.42
67165;SHT31;54093;50.014;19.984;2023-05-20T17:23:12;21.01;57.77
67165;SHT31;54093;50.014;19.984;2023-05-20T17:32:36;20.81;58.94
67165;SHT31;54093;50.014;19.984;2023-05-20T17:41:58;20.60;59.63
67165;SHT31;54093;50.014;19.984;2023-05-20T17:51:19;20.45;60.44
67165;SHT31;54093;50.014;19.984;2023-05-20T18:00:40;20.26;61.39
67165;SHT31;54093;50.014;19.984;2023-05-20T18:10:13;20.05;61.53
67165;SHT31;54093;50.014;19.984;2023-05-20T18:19:37;19.75;61.99
67165;SHT31;54093;50.014;19.984;2023-05-20T18:29:12;19.49;61.94
67165;SHT31;54093;50.014;19.984;2023-05-20T18:38:33;19.23;62.95
67165;SHT31;54093;50.014;19.984;2023-05-20T18:47:54;19.01;65.52
67165;SHT31;54093;50.014;19.984;2023-05-20T18:57:17;18.83;66.94
67165;SHT31;54093;50.014;19.984;2023-05-20T19:06:38;18.65;68.01
67165;SHT31;54093;50.014;19.984;2023-05-20T19:15:59;18.51;68.98
67165;SHT31;54093;50.014;19.984;2023-05-20T19:25:21;18.36;69.11
67165;SHT31;54093;50.014;19.984;2023-05-20T19:34:41;18.19;70.10
67165;SHT31;54093;50.014;19.984;2023-05-20T19:44:04;18.12;70.01
67165;SHT31;54093;50.014;19.984;2023-05-20T19:53:25;18.00;70.57
67165;SHT31;54093;50.014;19.984;2023-05-20T20:02:46;17.91;70.45
67165;SHT31;54093;50.014;19.984;2023-05-20T20:12:07;17.83;71.10
67165;SHT31;54093;50.014;19.984;2023-05-20T20:21:28;17.67;71.41
67165;SHT31;54093;50.014;19.984;2023-05-20T20:30:49;17.55;71.72
67165;SHT31;54093;50.014;19.984;2023-05-20T20:40:10;17.47;71.97
67165;SHT31;54093;50.014;19.984;2023-05-20T20:49:32;17.35;72.05
67165;SHT31;54093;50.014;19.984;2023-05-20T20:58:54;17.17;72.59
67165;SHT31;54093;50.014;19.984;2023-05-20T21:08:16;16.97;72.86
67165;SHT31;54093;50.014;19.984;2023-05-20T21:17:37;16.63;73.67
67165;SHT31;54093;50.014;19.984;2023-05-20T21:26:58;16.42;73.88
67165;SHT31;54093;50.014;19.984;2023-05-20T21:36:20;16.31;73.48
67165;SHT31;54093;50.014;19.984;2023-05-20T21:45:41;16.11;74.45
67165;SHT31;54093;50.014;19.984;2023-05-20T21:55:02;15.97;73.71
67165;SHT31;54093;50.014;19.984;2023-05-20T22:04:23;15.89;73.96
67165;SHT31;54093;50.014;19.984;2023-05-20T22:13:44;15.69;74.44
67165;SHT31;54093;50.014;19.984;2023-05-20T22:23:05;15.55;75.92
67165;SHT31;54093;50.014;19.984;2023-05-20T22:32:26;15.59;75.32
67165;SHT31;54093;50.014;19.984;2023-05-20T22:41:47;15.46;75.37
67165;SHT31;54093;50.014;19.984;2023-05-20T22:51:08;15.49;75.67
67165;SHT31;54093;50.014;19.984;2023-05-20T23:00:29;15.53;76.06
67165;SHT31;54093;50.014;19.984;2023-05-20T23:09:50;15.50;76.07
67165;SHT31;54093;50.014;19.984;2023-05-20T23:19:11;15.43;76.58
67165;SHT31;54093;50.014;19.984;2023-05-20T23:28:31;15.35;77.05
67165;SHT31;54093;50.014;19.984;2023-05-20T23:37:52;15.34;77.31
67165;SHT31;54093;50.014;19.984;2023-05-20T23:47:13;15.28;77.46
67165;SHT31;54093;50.014;19.984;2023-05-20T23:56:34;15.24;77.55
